sensor_id;sensor_type;location;lat;lon;timestamp;temperature;humidity
27619;DHT22;15039;50.830;4.730;2023-06-19T00:01:54;20.40;99.90
27619;DHT22;15039;50.830;4.730;2023-06-19T00:04:19;20.40;99.90
27619;DHT22;15039;50.830;4.730;2023-06-19T00:06:45;20.40;99.90
27619;DHT22;15039;50.830;4.730;2023-06-19T00:09:11;20.30;99.90
27619;DHT22;15039;50.830;4.730;2023-06-19T00:11:36;20.30;99.90
27619;DHT22;15039;50.830;4.730;2023-06-19T00:14:02;20.30;99.90
27619;DHT22;15039;50.830;4.730;2023-06-19T00:16:28;20.20;99.90
27619;DHT22;15039;50.830;4.730;2023-06-19T00:18:53;20.10;99.90
27619;DHT22;15039;50.830;4.730;2023-06-19T00:21:22;20.10;99.90
27619;DHT22;15039;50.830;4.730;2023-06-19T00:23:50;20.00;99.90
27619;DHT22;15039;50.830;4.730;2023-06-19T00:26:16;20.00;99.90
27619;DHT22;15039;50.830;4.730;2023-06-19T00:28:41;19.90;99.90
27619;DHT22;15039;50.830;4.730;2023-06-19T00:31:09;19.80;99.90
27619;DHT22;15039;50.830;4.730;2023-06-19T00:33:37;19.70;99.90
27619;DHT22;15039;50.830;4.730;2023-06-19T00:36:11;19.70;99.90
27619;DHT22;15039;50.830;4.730;2023-06-19T00:38:41;19.70;99.90
27619;DHT22;15039;50.830;4.730;2023-06-19T00:41:07;19.70;99.90
27619;DHT22;15039;50.830;4.730;2023-06-19T00:43:33;19.70;99.90
27619;DHT22;15039;50.830;4.730;2023-06-19T00:45:59;19.70;99.90
27619;DHT22;15039;50.830;4.730;2023-06-19T00:48:27;19.80;99.90
27619;DHT22;15039;50.830;4.730;2023-06-19T00:50:54;19.80;99.90
27619;DHT22;15039;50.830;4.730;2023-06-19T00:53:20;19.70;99.90
27619;DHT22;15039;50.830;4.730;2023-06-19T00:55:47;19.70;99.90
27619;DHT22;15039;50.830;4.730;2023-06-19T00:58:13;19.60;99.90
27619;DHT22;15039;50.830;4.730;2023-06-19T01:00:39;19.60;99.90
27619;DHT22;15039;50.830;4.730;2023-06-19T01:03:05;19.60;99.90
27619;DHT22;15039;50.830;4.730;2023-06-19T01:05:31;19.50;99.90
27619;DHT22;15039;50.830;4.730;2023-06-19T01:08:07;19.50;99.90
27619;DHT22;15039;50.830;4.730;2023-06-19T01:10:42;19.50;99.90
27619;DHT22;15039;50.830;4.730;2023-06-19T01:15:49;19.50;99.90
27619;DHT22;15039;50.830;4.730;2023-06-19T01:18:16;19.60;99.90
27619;DHT22;15039;50.830;4.730;2023-06-19T01:20:42;19.50;99.90
27619;DHT22;15039;50.830;4.730;2023-06-19T01:23:09;19.50;99.90
27619;DHT22;15039;50.830;4.730;2023-06-19T01:25:35;19.40;99.90
27619;DHT22;15039;50.830;4.730;2023-06-19T01:28:06;19.40;99.90
27619;DHT22;15039;50.830;4.730;2023-06-19T01:30:35;19.40;99.90
27619;DHT22;15039;50.830;4.730;2023-06-19T01:33:18;19.40;99.90
27619;DHT22;15039;50.830;4.730;2023-06-19T01:35:47;19.40;99.90
27619;DHT22;15039;50.830;4.730;2023-06-19T01:38:13;19.30;99.90
27619;DHT22;15039;50.830;4.730;2023-06-19T01:40:40;19.30;99.90
27619;DHT22;15039;50.830;4.730;2023-06-19T01:43:08;19.30;99.90
27619;DHT22;15039;50.830;4.730;2023-06-19T01:45:35;19.30;99.90
27619;DHT22;15039;50.830;4.730;2023-06-19T01:48:01;19.30;99.90
27619;DHT22;15039;50.830;4.730;2023-06-19T01:50:26;19.30;99.90
27619;DHT22;15039;50.830;4.730;2023-06-19T01:52:52;19.20;99.90
27619;DHT22;15039;50.830;4.730;2023-06-19T01:55:18;19.10;99.90
27619;DHT22;15039;50.830;4.730;2023-06-19T01:57:43;19.10;99.90
27619;DHT22;15039;50.830;4.730;2023-06-19T02:00:12;19.10;99.90
27619;DHT22;15039;50.830;4.730;2023-06-19T02:02:37;19.10;99.90
27619;DHT22;15039;50.830;4.730;2023-06-19T02:05:03;19.10;99.90
27619;DHT22;15039;50.830;4.730;2023-06-19T02:07:30;19.20;99.90
27619;DHT22;15039;50.830;4.730;2023-06-19T02:09:56;19.10;99.90
27619;DHT22;15039;50.830;4.730;2023-06-19T02:12:22;19.10;99.90
27619;DHT22;15039;50.830;4.730;2023-06-19T02:14:47;19.00;99.90
27619;DHT22;15039;50.830;4.730;2023-06-19T02:17:13;19.10;99.90
27619;DHT22;15039;50.830;4.730;2023-06-19T02:19:39;19.10;99.90
27619;DHT22;15039;50.830;4.730;2023-06-19T02:22:05;19.20;99.90
27619;DHT22;15039;50.830;4.730;2023-06-19T02:24:31;19.20;99.90
27619;DHT22;15039;50.830;4.730;2023-06-19T02:26:57;19.30;99.90
27619;DHT22;15039;50.830;4.730;2023-06-19T02:29:23;19.30;99.90
27619;DHT22;15039;50.830;4.730;2023-06-19T02:31:49;19.30;99.90
27619;DHT22;15039;50.830;4.730;2023-06-19T02:34:15;19.40;99.90
27619;DHT22;15039;50.830;4.730;2023-06-19T02:36:40;19.30;99.90
27619;DHT22;15039;50.830;4.730;2023-06-19T02:39:06;19.40;99.90
27619;DHT22;15039;50.830;4.730;2023-06-19T02:41:32;19.50;99.90
27619;DHT22;15039;50.830;4.730;2023-06-19T02:43:58;19.50;99.90
27619;DHT22;15039;50.830;4.730;2023-06-19T02:46:23;19.60;99.90
27619;DHT22;15039;50.830;4.730;2023-06-19T02:48:49;19.60;99.90
27619;DHT22;15039;50.830;4.730;2023-06-19T02:51:15;19.60;99.90
27619;DHT22;15039;50.830;4.730;2023-06-19T02:53:40;19.60;99.90
27619;DHT22;15039;50.830;4.730;2023-06-19T02:56:07;19.60;99.90
27619;DHT22;15039;50.830;4.730;2023-06-19T02:58:33;19.50;99.90
27619;DHT22;15039;50.830;4.730;2023-06-19T03:00:59;19.50;99.90
27619;DHT22;15039;50.830;4.730;2023-06-19T03:03:25;19.60;99.90
27619;DHT22;15039;50.830;4.730;2023-06-19T03:05:51;19.60;99.90
27619;DHT22;15039;50.830;4.730;2023-06-19T03:08:17;19.50;99.90
27619;DHT22;15039;50.830;4.730;2023-06-19T03:10:42;19.50;99.90
27619;DHT22;15039;50.830;4.730;2023-06-19T03:13:08;19.40;99.90
27619;DHT22;15039;50.830;4.730;2023-06-19T03:15:34;19.30;99.90
27619;DHT22;15039;50.830;4.730;2023-06-19T03:17:59;19.20;99.90
27619;DHT22;15039;50.830;4.730;2023-06-19T03:20:28;19.10;99.90
27619;DHT22;15039;50.830;4.730;2023-06-19T03:22:54;19.10;99.90
27619;DHT22;15039;50.830;4.730;2023-06-19T03:25:19;19.20;99.90
27619;DHT22;15039;50.830;4.730;2023-06-19T03:27:45;19.00;99.90
27619;DHT22;15039;50.830;4.730;2023-06-19T03:30:11;19.10;99.90
27619;DHT22;15039;50.830;4.730;2023-06-19T03:32:38;19.20;99.90
27619;DHT22;15039;50.830;4.730;2023-06-19T03:35:04;19.20;99.90
27619;DHT22;15039;50.830;4.730;2023-06-19T03:37:30;19.10;99.90
27619;DHT22;15039;50.830;4.730;2023-06-19T03:39:58;19.10;99.90
27619;DHT22;15039;50.830;4.730;2023-06-19T03:42:23;19.10;99.90
27619;DHT22;15039;50.830;4.730;2023-06-19T03:44:49;19.10;99.90
27619;DHT22;15039;50.830;4.730;2023-06-19T03:47:14;19.10;99.90
27619;DHT22;15039;50.830;4.730;2023-06-19T03:49:41;19.10;99.90
27619;DHT22;15039;50.830;4.730;2023-06-19T03:52:07;19.10;99.90
27619;DHT22;15039;50.830;4.730;2023-06-19T03:54:33;19.10;99.90
27619;DHT22;15039;50.830;4.730;2023-06-19T03:56:58;19.10;99.90
27619;DHT22;15039;50.830;4.730;2023-06-19T03:59:24;19.20;99.90
27619;DHT22;15039;50.830;4.730;2023-06-19T04:01:50;19.10;99.90
27619;DHT22;15039;50.830;4.730;2023-06-19T04:04:15;19.10;99.90
27619;DHT22;15039;50.830;4.730;2023-06-19T04:06:41;19.10;99.90
27619;DHT22;15039;50.830;4.730;2023-06-19T04:09:07;19.00;99.90
27619;DHT22;15039;50.830;4.730;2023-06-19T04:11:32;18.90;99.90
27619;DHT22;15039;50.830;4.730;2023-06-19T04:13:58;18.80;99.90
27619;DHT22;15039;50.830;4.730;2023-06-19T04:16:23;18.80;99.90
27619;DHT22;15039;50.830;4.730;2023-06-19T04:18:49;18.80;99.90
27619;DHT22;15039;50.830;4.730;2023-06-19T04:21:15;18.90;99.90
27619;DHT22;15039;50.830;4.730;2023-06-19T04:23:41;18.90;99.90
27619;DHT22;15039;50.830;4.730;2023-06-19T04:26:06;18.90;99.90
27619;DHT22;15039;50.830;4.730;2023-06-19T04:28:32;18.90;99.90
27619;DHT22;15039;50.830;4.730;2023-06-19T04:30:58;18.90;99.90
27619;DHT22;15039;50.830;4.730;2023-06-19T04:33:29;18.90;99.90
27619;DHT22;15039;50.830;4.730;2023-06-19T04:35:55;18.90;99.90
27619;DHT22;15039;50.830;4.730;2023-06-19T04:38:21;18.90;99.90
27619;DHT22;15039;50.830;4.730;2023-06-19T04:40:51;18.90;99.90
27619;DHT22;15039;50.830;4.730;2023-06-19T04:43:17;18.90;99.90
27619;DHT22;15039;50.830;4.730;2023-06-19T04:45:42;19.00;99.90
27619;DHT22;15039;50.830;4.730;2023-06-19T04:48:08;19.00;99.90
27619;DHT22;15039;50.830;4.730;2023-06-19T04:50:34;19.00;99.90
27619;DHT22;15039;50.830;4.730;2023-06-19T04:53:00;19.10;99.90
27619;DHT22;15039;50.830;4.730;2023-06-19T04:55:25;19.00;99.90
27619;DHT22;15039;50.830;4.730;2023-06-19T04:57:51;19.10;99.90
27619;DHT22;15039;50.830;4.730;2023-06-19T05:00:17;19.20;99.90
27619;DHT22;15039;50.830;4.730;2023-06-19T05:02:45;19.20;99.90
27619;DHT22;15039;50.830;4.730;2023-06-19T05:05:13;19.20;99.90
27619;DHT22;15039;50.830;4.730;2023-06-19T05:07:39;19.20;99.90
27619;DHT22;15039;50.830;4.730;2023-06-19T05:10:05;19.20;99.90
27619;DHT22;15039;50.830;4.730;2023-06-19T05:12:31;19.30;99.90
27619;DHT22;15039;50.830;4.730;2023-06-19T05:14:57;19.30;99.90
27619;DHT22;15039;50.830;4.730;2023-06-19T05:17:22;19.40;99.90
27619;DHT22;15039;50.830;4.730;2023-06-19T05:19:48;19.50;99.90
27619;DHT22;15039;50.830;4.730;2023-06-19T05:22:14;19.40;99.90
27619;DHT22;15039;50.830;4.730;2023-06-19T05:24:39;19.40;99.90
27619;DHT22;15039;50.830;4.730;2023-06-19T05:27:05;19.50;99.90
27619;DHT22;15039;50.830;4.730;2023-06-19T05:29:32;19.50;99.90
27619;DHT22;15039;50.830;4.730;2023-06-19T05:31:57;19.50;99.90
27619;DHT22;15039;50.830;4.730;2023-06-19T05:34:23;19.50;99.90
27619;DHT22;15039;50.830;4.730;2023-06-19T05:36:49;19.50;99.90
27619;DHT22;15039;50.830;4.730;2023-06-19T05:39:14;19.50;99.90
27619;DHT22;15039;50.830;4.730;2023-06-19T05:41:41;19.60;99.90
27619;DHT22;15039;50.830;4.730;2023-06-19T05:44:07;19.60;99.90
27619;DHT22;15039;50.830;4.730;2023-06-19T05:46:32;19.50;99.90
27619;DHT22;15039;50.830;4.730;2023-06-19T05:48:58;19.60;99.90
27619;DHT22;15039;50.830;4.730;2023-06-19T05:51:23;19.60;99.90
27619;DHT22;15039;50.830;4.730;2023-06-19T05:53:49;19.60;99.90
27619;DHT22;15039;50.830;4.730;2023-06-19T05:56:15;19.60;99.90
27619;DHT22;15039;50.830;4.730;2023-06-19T05:58:41;19.70;99.90
27619;DHT22;15039;50.830;4.730;2023-06-19T06:01:07;19.90;99.90
27619;DHT22;15039;50.830;4.730;2023-06-19T06:03:33;20.10;99.90
27619;DHT22;15039;50.830;4.730;2023-06-19T06:05:58;20.30;99.90
27619;DHT22;15039;50.830;4.730;2023-06-19T06:08:31;20.50;99.90
27619;DHT22;15039;50.830;4.730;2023-06-19T06:10:57;20.40;99.90
27619;DHT22;15039;50.830;4.730;2023-06-19T06:13:23;20.70;99.90
27619;DHT22;15039;50.830;4.730;2023-06-19T06:15:50;20.70;99.90
27619;DHT22;15039;50.830;4.730;2023-06-19T06:18:15;20.90;99.90
27619;DHT22;15039;50.830;4.730;2023-06-19T06:20:41;20.90;99.90
27619;DHT22;15039;50.830;4.730;2023-06-19T06:23:07;20.90;99.90
27619;DHT22;15039;50.830;4.730;2023-06-19T06:25:32;21.10;99.90
27619;DHT22;15039;50.830;4.730;2023-06-19T06:27:58;21.30;99.90
27619;DHT22;15039;50.830;4.730;2023-06-19T06:30:24;21.50;99.90
27619;DHT22;15039;50.830;4.730;2023-06-19T06:32:51;21.70;99.90
27619;DHT22;15039;50.830;4.730;2023-06-19T06:35:17;21.60;99.90
27619;DHT22;15039;50.830;4.730;2023-06-19T06:37:42;21.30;99.90
27619;DHT22;15039;50.830;4.730;2023-06-19T06:40:10;21.00;99.90
27619;DHT22;15039;50.830;4.730;2023-06-19T06:42:36;20.80;99.90
27619;DHT22;15039;50.830;4.730;2023-06-19T06:45:04;20.50;99.90
27619;DHT22;15039;50.830;4.730;2023-06-19T06:47:31;20.40;99.90
27619;DHT22;15039;50.830;4.730;2023-06-19T06:49:56;20.50;99.90
27619;DHT22;15039;50.830;4.730;2023-06-19T06:52:22;20.80;99.90
27619;DHT22;15039;50.830;4.730;2023-06-19T06:54:48;20.80;99.90
27619;DHT22;15039;50.830;4.730;2023-06-19T06:57:13;20.90;99.90
27619;DHT22;15039;50.830;4.730;2023-06-19T06:59:39;20.90;99.90
27619;DHT22;15039;50.830;4.730;2023-06-19T07:02:05;20.90;99.90
27619;DHT22;15039;50.830;4.730;2023-06-19T07:04:31;20.90;99.90
27619;DHT22;15039;50.830;4.730;2023-06-19T07:06:57;20.80;99.90
27619;DHT22;15039;50.830;4.730;2023-06-19T07:09:23;20.90;99.90
27619;DHT22;15039;50.830;4.730;2023-06-19T07:11:49;20.90;99.90
27619;DHT22;15039;50.830;4.730;2023-06-19T07:14:15;20.80;99.90
27619;DHT22;15039;50.830;4.730;2023-06-19T07:16:44;20.50;99.90
27619;DHT22;15039;50.830;4.730;2023-06-19T07:19:10;20.50;99.90
27619;DHT22;15039;50.830;4.730;2023-06-19T07:21:36;20.50;99.90
27619;DHT22;15039;50.830;4.730;2023-06-19T07:24:04;20.50;99.90
27619;DHT22;15039;50.830;4.730;2023-06-19T07:26:30;20.50;99.90
27619;DHT22;15039;50.830;4.730;2023-06-19T07:28:56;20.60;99.90
27619;DHT22;15039;50.830;4.730;2023-06-19T07:31:22;20.80;99.90
27619;DHT22;15039;50.830;4.730;2023-06-19T07:33:48;20.80;99.90
27619;DHT22;15039;50.830;4.730;2023-06-19T07:36:14;20.90;99.90
27619;DHT22;15039;50.830;4.730;2023-06-19T07:38:42;20.90;99.90
27619;DHT22;15039;50.830;4.730;2023-06-19T07:41:08;21.00;99.90
27619;DHT22;15039;50.830;4.730;2023-06-19T07:43:35;20.90;99.90
27619;DHT22;15039;50.830;4.730;2023-06-19T07:46:01;20.90;99.90
27619;DHT22;15039;50.830;4.730;2023-06-19T07:48:27;20.70;99.90
27619;DHT22;15039;50.830;4.730;2023-06-19T07:50:53;20.60;99.90
27619;DHT22;15039;50.830;4.730;2023-06-19T07:53:19;20.70;99.90
27619;DHT22;15039;50.830;4.730;2023-06-19T07:55:45;20.70;99.90
27619;DHT22;15039;50.830;4.730;2023-06-19T07:58:11;20.80;99.90
27619;DHT22;15039;50.830;4.730;2023-06-19T08:00:36;20.90;99.90
27619;DHT22;15039;50.830;4.730;2023-06-19T08:03:02;21.00;99.90
27619;DHT22;15039;50.830;4.730;2023-06-19T08:05:28;21.20;99.90
27619;DHT22;15039;50.830;4.730;2023-06-19T08:07:53;21.20;99.90
27619;DHT22;15039;50.830;4.730;2023-06-19T08:10:22;21.30;99.90
27619;DHT22;15039;50.830;4.730;2023-06-19T08:12:48;21.40;99.90
27619;DHT22;15039;50.830;4.730;2023-06-19T08:15:14;21.40;99.90
27619;DHT22;15039;50.830;4.730;2023-06-19T08:17:40;21.50;99.90
27619;DHT22;15039;50.830;4.730;2023-06-19T08:20:06;21.50;99.90
27619;DHT22;15039;50.830;4.730;2023-06-19T08:22:32;21.60;99.90
27619;DHT22;15039;50.830;4.730;2023-06-19T08:24:58;21.60;99.90
27619;DHT22;15039;50.830;4.730;2023-06-19T08:27:24;21.60;99.90
27619;DHT22;15039;50.830;4.730;2023-06-19T08:29:49;21.40;99.90
27619;DHT22;15039;50.830;4.730;2023-06-19T08:32:16;21.50;99.90
27619;DHT22;15039;50.830;4.730;2023-06-19T08:34:42;21.60;99.90
27619;DHT22;15039;50.830;4.730;2023-06-19T08:37:08;21.80;99.90
27619;DHT22;15039;50.830;4.730;2023-06-19T08:39:34;21.90;99.90
27619;DHT22;15039;50.830;4.730;2023-06-19T08:42:01;22.10;99.90
27619;DHT22;15039;50.830;4.730;2023-06-19T08:44:27;22.20;99.90
27619;DHT22;15039;50.830;4.730;2023-06-19T08:46:52;22.40;99.90
27619;DHT22;15039;50.830;4.730;2023-06-19T08:49:18;22.40;99.90
27619;DHT22;15039;50.830;4.730;2023-06-19T08:51:48;22.40;99.90
27619;DHT22;15039;50.830;4.730;2023-06-19T08:54:14;22.50;99.90
27619;DHT22;15039;50.830;4.730;2023-06-19T08:56:39;22.50;99.90
27619;DHT22;15039;50.830;4.730;2023-06-19T08:59:14;22.50;99.90
27619;DHT22;15039;50.830;4.730;2023-06-19T09:01:40;22.60;99.90
27619;DHT22;15039;50.830;4.730;2023-06-19T09:04:18;22.70;99.90
27619;DHT22;15039;50.830;4.730;2023-06-19T09:06:52;22.70;99.90
27619;DHT22;15039;50.830;4.730;2023-06-19T09:09:23;22.80;99.90
27619;DHT22;15039;50.830;4.730;2023-06-19T09:12:03;22.90;99.90
27619;DHT22;15039;50.830;4.730;2023-06-19T09:14:40;22.90;99.90
27619;DHT22;15039;50.830;4.730;2023-06-19T09:17:07;23.10;99.90
27619;DHT22;15039;50.830;4.730;2023-06-19T09:19:33;23.30;99.90
27619;DHT22;15039;50.830;4.730;2023-06-19T09:22:02;23.50;99.90
27619;DHT22;15039;50.830;4.730;2023-06-19T09:24:41;23.50;99.90
27619;DHT22;15039;50.830;4.730;2023-06-19T09:27:08;23.40;99.90
27619;DHT22;15039;50.830;4.730;2023-06-19T09:29:37;23.20;99.90
27619;DHT22;15039;50.830;4.730;2023-06-19T09:32:20;23.20;99.90
27619;DHT22;15039;50.830;4.730;2023-06-19T09:34:47;23.30;99.90
27619;DHT22;15039;50.830;4.730;2023-06-19T09:37:13;23.50;99.90
27619;DHT22;15039;50.830;4.730;2023-06-19T09:39:40;23.80;99.90
27619;DHT22;15039;50.830;4.730;2023-06-19T09:42:09;24.10;99.90
27619;DHT22;15039;50.830;4.730;2023-06-19T09:44:41;24.40;99.90
27619;DHT22;15039;50.830;4.730;2023-06-19T09:47:18;24.50;99.90
27619;DHT22;15039;50.830;4.730;2023-06-19T09:49:55;24.50;99.90
27619;DHT22;15039;50.830;4.730;2023-06-19T09:52:22;24.60;99.90
27619;DHT22;15039;50.830;4.730;2023-06-19T09:54:53;24.70;99.90
27619;DHT22;15039;50.830;4.730;2023-06-19T09:57:19;24.90;99.90
27619;DHT22;15039;50.830;4.730;2023-06-19T09:59:52;25.00;99.90
27619;DHT22;15039;50.830;4.730;2023-06-19T10:02:19;25.20;99.90
27619;DHT22;15039;50.830;4.730;2023-06-19T10:04:49;25.30;99.90
27619;DHT22;15039;50.830;4.730;2023-06-19T10:07:17;25.50;99.90
27619;DHT22;15039;50.830;4.730;2023-06-19T10:09:57;25.50;99.90
27619;DHT22;15039;50.830;4.730;2023-06-19T10:12:33;25.30;99.90
27619;DHT22;15039;50.830;4.730;2023-06-19T10:15:11;25.50;99.90
27619;DHT22;15039;50.830;4.730;2023-06-19T10:17:37;25.60;99.90
27619;DHT22;15039;50.830;4.730;2023-06-19T10:20:04;25.80;99.90
27619;DHT22;15039;50.830;4.730;2023-06-19T10:22:30;25.90;99.90
27619;DHT22;15039;50.830;4.730;2023-06-19T10:24:56;25.80;99.90
27619;DHT22;15039;50.830;4.730;2023-06-19T10:27:24;25.80;99.90
27619;DHT22;15039;50.830;4.730;2023-06-19T10:29:54;25.90;99.90
27619;DHT22;15039;50.830;4.730;2023-06-19T10:32:20;26.10;99.90
27619;DHT22;15039;50.830;4.730;2023-06-19T10:34:47;25.90;99.90
27619;DHT22;15039;50.830;4.730;2023-06-19T10:37:16;25.50;99.90
27619;DHT22;15039;50.830;4.730;2023-06-19T10:39:43;25.20;99.90
27619;DHT22;15039;50.830;4.730;2023-06-19T10:42:09;24.90;99.90
27619;DHT22;15039;50.830;4.730;2023-06-19T10:44:35;24.70;99.90
27619;DHT22;15039;50.830;4.730;2023-06-19T10:47:04;24.80;99.90
27619;DHT22;15039;50.830;4.730;2023-06-19T10:49:30;24.80;99.90
27619;DHT22;15039;50.830;4.730;2023-06-19T10:51:59;24.90;99.90
27619;DHT22;15039;50.830;4.730;2023-06-19T10:54:25;25.20;99.90
27619;DHT22;15039;50.830;4.730;2023-06-19T10:56:51;25.30;99.90
27619;DHT22;15039;50.830;4.730;2023-06-19T10:59:17;25.40;99.90
27619;DHT22;15039;50.830;4.730;2023-06-19T11:01:47;25.50;99.90
27619;DHT22;15039;50.830;4.730;2023-06-19T11:04:15;25.60;99.90
27619;DHT22;15039;50.830;4.730;2023-06-19T11:06:43;25.70;99.90
27619;DHT22;15039;50.830;4.730;2023-06-19T11:09:10;25.70;99.90
27619;DHT22;15039;50.830;4.730;2023-06-19T11:14:02;25.80;99.90
27619;DHT22;15039;50.830;4.730;2023-06-19T11:16:27;25.90;99.90
27619;DHT22;15039;50.830;4.730;2023-06-19T11:19:00;25.80;99.70
27619;DHT22;15039;50.830;4.730;2023-06-19T11:21:33;25.70;99.30
27619;DHT22;15039;50.830;4.730;2023-06-19T11:24:05;25.60;99.80
27619;DHT22;15039;50.830;4.730;2023-06-19T11:26:35;25.60;99.40
27619;DHT22;15039;50.830;4.730;2023-06-19T11:29:13;25.70;99.60
27619;DHT22;15039;50.830;4.730;2023-06-19T11:31:39;25.60;99.40
27619;DHT22;15039;50.830;4.730;2023-06-19T11:34:05;25.50;99.90
27619;DHT22;15039;50.830;4.730;2023-06-19T11:36:31;25.70;99.90
27619;DHT22;15039;50.830;4.730;2023-06-19T11:38:56;25.70;99.90
27619;DHT22;15039;50.830;4.730;2023-06-19T11:41:25;25.70;99.90
27619;DHT22;15039;50.830;4.730;2023-06-19T11:43:58;25.80;99.60
27619;DHT22;15039;50.830;4.730;2023-06-19T11:46:29;25.80;99.80
27619;DHT22;15039;50.830;4.730;2023-06-19T11:48:56;26.00;99.70
27619;DHT22;15039;50.830;4.730;2023-06-19T11:51:21;26.10;99.90
27619;DHT22;15039;50.830;4.730;2023-06-19T11:53:47;26.10;99.00
27619;DHT22;15039;50.830;4.730;2023-06-19T11:56:13;26.00;99.40
27619;DHT22;15039;50.830;4.730;2023-06-19T11:58:39;26.00;98.60
27619;DHT22;15039;50.830;4.730;2023-06-19T12:01:04;26.10;98.40
27619;DHT22;15039;50.830;4.730;2023-06-19T12:03:30;26.20;98.30
27619;DHT22;15039;50.830;4.730;2023-06-19T12:05:56;26.00;99.00
27619;DHT22;15039;50.830;4.730;2023-06-19T12:08:21;25.90;98.30
27619;DHT22;15039;50.830;4.730;2023-06-19T12:10:48;26.10;98.50
27619;DHT22;15039;50.830;4.730;2023-06-19T12:13:15;26.00;98.80
27619;DHT22;15039;50.830;4.730;2023-06-19T12:15:40;25.70;98.80
27619;DHT22;15039;50.830;4.730;2023-06-19T12:18:06;25.80;99.30
27619;DHT22;15039;50.830;4.730;2023-06-19T12:20:33;25.80;98.50
27619;DHT22;15039;50.830;4.730;2023-06-19T12:22:58;25.90;98.90
27619;DHT22;15039;50.830;4.730;2023-06-19T12:25:24;26.20;98.80
27619;DHT22;15039;50.830;4.730;2023-06-19T12:27:50;26.30;98.50
27619;DHT22;15039;50.830;4.730;2023-06-19T12:30:16;26.50;99.00
27619;DHT22;15039;50.830;4.730;2023-06-19T12:32:41;26.50;98.60
27619;DHT22;15039;50.830;4.730;2023-06-19T12:35:07;26.70;97.80
27619;DHT22;15039;50.830;4.730;2023-06-19T12:37:33;26.70;97.60
27619;DHT22;15039;50.830;4.730;2023-06-19T12:39:58;26.70;98.10
27619;DHT22;15039;50.830;4.730;2023-06-19T12:42:24;26.60;97.80
27619;DHT22;15039;50.830;4.730;2023-06-19T12:44:51;26.50;97.90
27619;DHT22;15039;50.830;4.730;2023-06-19T12:47:27;26.60;97.60
27619;DHT22;15039;50.830;4.730;2023-06-19T12:49:52;26.80;97.70
27619;DHT22;15039;50.830;4.730;2023-06-19T12:52:18;27.00;97.00
27619;DHT22;15039;50.830;4.730;2023-06-19T12:54:44;27.20;96.60
27619;DHT22;15039;50.830;4.730;2023-06-19T12:57:09;27.40;97.10
27619;DHT22;15039;50.830;4.730;2023-06-19T12:59:35;27.60;96.90
27619;DHT22;15039;50.830;4.730;2023-06-19T13:02:01;27.60;97.40
27619;DHT22;15039;50.830;4.730;2023-06-19T13:04:26;27.70;96.90
27619;DHT22;15039;50.830;4.730;2023-06-19T13:06:52;27.60;96.80
27619;DHT22;15039;50.830;4.730;2023-06-19T13:09:21;27.50;97.00
27619;DHT22;15039;50.830;4.730;2023-06-19T13:11:46;27.50;97.00
27619;DHT22;15039;50.830;4.730;2023-06-19T13:14:12;27.40;96.60
27619;DHT22;15039;50.830;4.730;2023-06-19T13:16:37;27.40;97.20
27619;DHT22;15039;50.830;4.730;2023-06-19T13:19:04;27.60;97.30
27619;DHT22;15039;50.830;4.730;2023-06-19T13:21:30;27.80;96.60
27619;DHT22;15039;50.830;4.730;2023-06-19T13:23:58;27.80;96.70
27619;DHT22;15039;50.830;4.730;2023-06-19T13:26:24;27.80;96.70
27619;DHT22;15039;50.830;4.730;2023-06-19T13:28:50;27.80;96.70
27619;DHT22;15039;50.830;4.730;2023-06-19T13:31:15;27.90;96.30
27619;DHT22;15039;50.830;4.730;2023-06-19T13:33:41;28.00;96.60
27619;DHT22;15039;50.830;4.730;2023-06-19T13:36:07;28.10;96.70
27619;DHT22;15039;50.830;4.730;2023-06-19T13:38:34;28.20;96.90
27619;DHT22;15039;50.830;4.730;2023-06-19T13:40:59;28.20;96.90
27619;DHT22;15039;50.830;4.730;2023-06-19T13:43:26;28.20;96.30
27619;DHT22;15039;50.830;4.730;2023-06-19T13:45:52;28.20;96.40
27619;DHT22;15039;50.830;4.730;2023-06-19T13:48:19;28.00;96.20
27619;DHT22;15039;50.830;4.730;2023-06-19T13:50:46;27.90;96.60
27619;DHT22;15039;50.830;4.730;2023-06-19T13:53:12;27.80;96.60
27619;DHT22;15039;50.830;4.730;2023-06-19T13:55:39;27.80;96.50
27619;DHT22;15039;50.830;4.730;2023-06-19T13:58:06;27.70;96.50
27619;DHT22;15039;50.830;4.730;2023-06-19T14:00:32;27.90;96.40
27619;DHT22;15039;50.830;4.730;2023-06-19T14:02:59;28.10;95.90
27619;DHT22;15039;50.830;4.730;2023-06-19T14:05:27;28.20;96.20
27619;DHT22;15039;50.830;4.730;2023-06-19T14:07:54;28.40;96.30
27619;DHT22;15039;50.830;4.730;2023-06-19T14:10:20;28.60;95.80
27619;DHT22;15039;50.830;4.730;2023-06-19T14:12:46;28.50;96.00
27619;DHT22;15039;50.830;4.730;2023-06-19T14:15:11;28.60;96.10
27619;DHT22;15039;50.830;4.730;2023-06-19T14:17:37;28.70;96.00
27619;DHT22;15039;50.830;4.730;2023-06-19T14:20:03;28.70;95.80
27619;DHT22;15039;50.830;4.730;2023-06-19T14:22:30;28.70;96.10
27619;DHT22;15039;50.830;4.730;2023-06-19T14:24:58;28.70;96.20
27619;DHT22;15039;50.830;4.730;2023-06-19T14:27:28;28.50;95.70
27619;DHT22;15039;50.830;4.730;2023-06-19T14:29:55;28.50;95.90
27619;DHT22;15039;50.830;4.730;2023-06-19T14:32:22;28.70;96.20
27619;DHT22;15039;50.830;4.730;2023-06-19T14:34:49;28.80;96.00
27619;DHT22;15039;50.830;4.730;2023-06-19T14:37:16;28.70;95.70
27619;DHT22;15039;50.830;4.730;2023-06-19T14:39:42;28.70;95.80
27619;DHT22;15039;50.830;4.730;2023-06-19T14:42:08;28.70;95.70
27619;DHT22;15039;50.830;4.730;2023-06-19T14:44:36;28.50;95.00
27619;DHT22;15039;50.830;4.730;2023-06-19T14:47:02;28.40;95.00
27619;DHT22;15039;50.830;4.730;2023-06-19T14:49:27;28.40;95.30
27619;DHT22;15039;50.830;4.730;2023-06-19T14:51:54;28.30;95.60
27619;DHT22;15039;50.830;4.730;2023-06-19T14:54:22;28.20;95.50
27619;DHT22;15039;50.830;4.730;2023-06-19T14:56:48;28.40;95.10
27619;DHT22;15039;50.830;4.730;2023-06-19T14:59:15;28.40;95.20
27619;DHT22;15039;50.830;4.730;2023-06-19T15:01:41;28.70;94.50
27619;DHT22;15039;50.830;4.730;2023-06-19T15:04:06;28.80;94.50
27619;DHT22;15039;50.830;4.730;2023-06-19T15:06:32;28.90;94.10
27619;DHT22;15039;50.830;4.730;2023-06-19T15:08:58;29.10;94.70
27619;DHT22;15039;50.830;4.730;2023-06-19T15:11:24;29.30;94.70
27619;DHT22;15039;50.830;4.730;2023-06-19T15:13:49;29.30;94.40
27619;DHT22;15039;50.830;4.730;2023-06-19T15:16:15;29.10;94.60
27619;DHT22;15039;50.830;4.730;2023-06-19T15:18:42;28.90;95.00
27619;DHT22;15039;50.830;4.730;2023-06-19T15:21:09;28.80;94.80
27619;DHT22;15039;50.830;4.730;2023-06-19T15:23:35;28.80;95.00
27619;DHT22;15039;50.830;4.730;2023-06-19T15:26:01;28.80;94.90
27619;DHT22;15039;50.830;4.730;2023-06-19T15:28:26;28.70;95.20
27619;DHT22;15039;50.830;4.730;2023-06-19T15:30:52;28.70;94.80
27619;DHT22;15039;50.830;4.730;2023-06-19T15:33:17;28.70;94.80